Time;durP1;ratioP1;P1;durP2;ratioP2;P2;SDS_P1;SDS_P2;PMS_P1;PMS_P2;Temp;Humidity;BMP_temperature;BMP_pressure;BME280_temperature;BME280_humidity;BME280_pressure;Samples;Min_cycle;Max_cycle;Signal;HPM_P1;HPM_P2
2023/01/23 00:01:09;;;;;;;16.15;10.95;;;;;;;3.24;81.51;101577.53;5045347;28;20033;-78
2023/01/23 00:03:34;;;;;;;20.40;13.02;;;;;;;3.19;81.94;101573.69;5044706;28;20044;-78
2023/01/23 00:06:05;;;;;;;16.40;10.40;;;;;;;3.14;82.01;101561.56;5045286;28;20033;-78
2023/01/23 00:08:31;;;;;;;20.30;11.23;;;;;;;3.08;82.14;101567.63;5043980;28;20048;-77
2023/01/23 00:10:56;;;;;;;22.40;12.43;;;;;;;3.20;82.40;101575.34;5045184;28;20040;-78
2023/01/23 00:13:22;;;;;;;23.17;12.93;;;;;;;3.23;81.64;101569.63;5044985;28;20041;-78
2023/01/23 00:15:47;;;;;;;25.05;14.25;;;;;;;3.21;81.86;101577.06;5044367;28;20029;-78
2023/01/23 00:18:13;;;;;;;22.10;10.68;;;;;;;3.22;82.32;101573.31;5042981;28;20412;-79
2023/01/23 00:20:39;;;;;;;18.25;11.95;;;;;;;3.25;82.31;101567.59;5045439;28;20686;-78
2023/01/23 00:23:04;;;;;;;18.67;11.23;;;;;;;3.32;80.99;101565.91;5044693;28;20045;-78
2023/01/23 00:25:30;;;;;;;28.42;13.68;;;;;;;3.36;81.65;101564.53;5044952;28;20374;-78
2023/01/23 00:27:55;;;;;;;20.83;11.40;;;;;;;3.29;81.70;101568.94;5042701;28;20048;-77
2023/01/23 00:30:20;;;;;;;23.53;12.57;;;;;;;3.21;81.61;101572.50;5044441;28;20545;-77
2023/01/23 00:32:45;;;;;;;20.80;12.55;;;;;;;3.27;81.00;101576.38;5044770;28;20323;-78
2023/01/23 00:35:11;;;;;;;25.60;13.10;;;;;;;3.30;81.87;101576.00;5044064;28;20032;-78
2023/01/23 00:37:36;;;;;;;20.25;11.30;;;;;;;3.29;81.67;101574.34;5043274;28;20262;-77
2023/01/23 00:40:02;;;;;;;20.67;12.82;;;;;;;3.34;82.02;101573.81;5044641;28;20492;-78
2023/01/23 00:42:27;;;;;;;22.88;12.48;;;;;;;3.40;82.00;101572.31;5044534;28;20041;-78
2023/01/23 00:44:52;;;;;;;20.57;11.50;;;;;;;3.44;81.13;101584.44;5042748;28;20090;-78
2023/01/23 00:47:18;;;;;;;17.93;10.43;;;;;;;3.45;81.04;101572.63;5044356;28;20262;-78
2023/01/23 00:49:43;;;;;;;20.67;13.17;;;;;;;3.36;80.72;101567.25;5043556;28;20339;-78
2023/01/23 00:52:09;;;;;;;21.77;12.35;;;;;;;3.46;80.81;101574.28;5044628;28;20947;-78
2023/01/23 00:54:34;;;;;;;21.53;14.10;;;;;;;3.48;81.21;101572.25;5044479;28;20049;-78
2023/01/23 00:56:59;;;;;;;22.08;13.85;;;;;;;3.50;80.70;101570.22;5044160;28;20293;-76
2023/01/23 00:59:25;;;;;;;21.25;12.10;;;;;;;3.56;80.75;101569.53;5042682;28;20103;-78
2023/01/23 01:01:50;;;;;;;24.63;13.00;;;;;;;3.55;80.52;101569.72;5043775;28;20094;-77
2023/01/23 01:04:15;;;;;;;24.97;13.50;;;;;;;3.59;80.58;101577.31;5043400;28;20449;-77
2023/01/23 01:06:40;;;;;;;20.50;11.80;;;;;;;3.53;81.07;101575.28;5044447;28;20265;-79
2023/01/23 01:09:06;;;;;;;21.90;11.88;;;;;;;3.54;80.89;101571.56;5042529;28;20324;-77
2023/01/23 01:11:31;;;;;;;17.73;11.68;;;;;;;3.55;80.87;101575.97;5044389;28;20045;-78
2023/01/23 01:13:56;;;;;;;20.83;12.43;;;;;;;3.55;80.76;101578.66;5043822;28;20458;-77
2023/01/23 01:16:23;;;;;;;20.67;11.23;;;;;;;3.54;80.32;101586.94;5044089;28;20064;-78
2023/01/23 01:18:48;;;;;;;22.38;11.60;;;;;;;3.59;80.62;101589.94;5042333;28;20067;-77
2023/01/23 01:21:15;;;;;;;23.58;12.13;;;;;;;3.58;80.80;101590.97;5044370;28;20025;-79
2023/01/23 01:23:40;;;;;;;23.70;12.80;;;;;;;3.54;80.47;101592.31;5044066;28;20045;-78
2023/01/23 01:26:06;;;;;;;25.42;13.65;;;;;;;3.50;80.34;101598.03;5044080;28;20055;-78
2023/01/23 01:28:32;;;;;;;19.35;11.80;;;;;;;3.57;80.97;101598.22;5043028;28;20098;-79
2023/01/23 01:31:07;;;;;;;21.80;10.88;;;;;;;3.59;80.82;101590.78;5044012;28;20037;-78
2023/01/23 01:33:33;;;;;;;22.25;13.57;;;;;;;3.61;80.66;101604.09;5043525;28;20048;-79
2023/01/23 01:36:00;;;;;;;24.27;13.68;;;;;;;3.55;79.84;101597.53;5043237;28;20067;-79
2023/01/23 01:38:25;;;;;;;25.65;12.02;;;;;;;3.57;80.25;101598.22;5042206;28;20509;-79
2023/01/23 01:40:51;;;;;;;17.10;10.05;;;;;;;3.54;80.35;101609.31;5043909;28;20025;-78
2023/01/23 01:43:23;;;;;;;23.63;12.57;;;;;;;3.52;81.13;101605.97;5043892;28;20467;-78
2023/01/23 01:46:01;;;;;;;26.80;11.32;;;;;;;3.52;80.88;101611.34;5043850;28;20059;-79
2023/01/23 01:48:35;;;;;;;22.77;12.45;;;;;;;3.54;81.24;101614.72;5042633;28;20049;-79
2023/01/23 01:51:05;;;;;;;23.67;11.45;;;;;;;3.45;80.40;101615.75;5044220;28;20032;-79
2023/01/23 01:53:32;;;;;;;18.27;10.43;;;;;;;3.53;80.89;101613.06;5043864;28;20145;-77
2023/01/23 01:55:59;;;;;;;18.63;11.27;;;;;;;3.58;81.20;101626.84;5043168;28;20032;-77
2023/01/23 01:58:26;;;;;;;19.77;11.02;;;;;;;3.58;80.88;101615.25;5041986;28;20049;-78
2023/01/23 02:00:51;;;;;;;24.02;12.85;;;;;;;3.57;80.95;101614.41;5042452;28;20110;-79
2023/01/23 02:03:18;;;;;;;20.33;11.20;;;;;;;3.56;80.36;101611.88;5041175;28;20545;-78
2023/01/23 02:05:47;;;;;;;17.80;10.43;;;;;;;3.55;80.51;101602.09;5040941;28;20045;-78
2023/01/23 02:08:18;;;;;;;17.10;9.80;;;;;;;3.38;80.44;101605.66;5039976;28;20053;-80
2023/01/23 02:10:44;;;;;;;24.77;13.68;;;;;;;3.41;80.72;101606.34;5041247;28;20041;-78
2023/01/23 02:13:20;;;;;;;22.88;11.77;;;;;;;3.46;81.21;101612.88;5040256;28;20747;-79
2023/01/23 02:15:46;;;;;;;21.98;10.68;;;;;;;3.52;80.84;101605.97;5040425;28;20508;-78
2023/01/23 02:18:11;;;;;;;19.00;11.40;;;;;;;3.56;80.68;101609.19;5040140;28;20159;-78
2023/01/23 02:20:37;;;;;;;21.90;11.30;;;;;;;3.57;80.68;101598.22;5042893;28;20037;-78
2023/01/23 02:23:32;;;;;;;20.90;13.25;;;;;;;3.44;80.34;101597.91;5042892;28;20052;-78
2023/01/23 02:26:00;;;;;;;21.77;12.68;;;;;;;3.30;80.84;101608.38;5042396;28;20130;-79
2023/01/23 02:28:37;;;;;;;19.70;11.73;;;;;;;3.32;81.37;101600.94;5040585;28;20045;-78
2023/01/23 02:31:02;;;;;;;23.42;10.57;;;;;;;3.35;81.32;101606.03;5041511;28;20029;-79
2023/01/23 02:33:28;;;;;;;16.60;10.73;;;;;;;3.42;80.57;101610.72;5042606;28;20045;-78
2023/01/23 02:35:54;;;;;;;18.15;10.60;;;;;;;3.44;81.46;101622.19;5041471;28;20049;-78
2023/01/23 02:38:23;;;;;;;19.83;10.82;;;;;;;3.46;81.35;101625.53;5041371;28;20498;-79
2023/01/23 02:40:49;;;;;;;13.63;10.18;;;;;;;3.48;81.09;101620.81;5046376;28;20103;-79
2023/01/23 02:43:20;;;;;;;21.48;14.05;;;;;;;3.50;80.73;101622.31;5045626;28;20139;-80
2023/01/23 02:45:45;;;;;;;17.90;9.80;;;;;;;3.47;81.00;101621.84;5045491;28;20157;-79
2023/01/23 02:48:10;;;;;;;19.20;10.27;;;;;;;3.49;81.05;101625.19;5044795;28;20139;-78
2023/01/23 02:50:36;;;;;;;21.25;10.48;;;;;;;3.49;81.01;101627.91;5045817;28;20040;-78
2023/01/23 02:53:01;;;;;;;22.05;11.60;;;;;;;3.54;80.40;101627.41;5045876;28;20866;-78
2023/01/23 02:55:29;;;;;;;16.50;10.05;;;;;;;3.44;80.08;101625.69;5045591;28;20037;-78
2023/01/23 03:00:14;;;;;;;15.50;10.25;;;;;;;3.46;80.59;101628.22;5044192;28;20490;-78
2023/01/23 03:00:42;;;;;;;15.75;9.48;;;;;;;3.43;80.61;101625.88;5044780;28;20124;-78
2023/01/23 03:03:08;;;;;;;21.13;11.18;;;;;;;3.43;81.15;101618.63;5045457;28;20055;-78
2023/01/23 03:05:33;;;;;;;21.33;12.13;;;;;;;3.43;80.96;101617.78;5045518;28;20037;-77
2023/01/23 03:07:59;;;;;;;17.38;10.55;;;;;;;3.45;81.34;101615.75;5043321;28;20072;-78
2023/01/23 03:10:24;;;;;;;17.93;10.90;;;;;;;3.51;81.26;101609.69;5045937;28;20059;-78
2023/01/23 03:12:49;;;;;;;22.10;12.32;;;;;;;3.46;80.84;101614.75;5045228;28;20270;-78
2023/01/23 03:15:14;;;;;;;17.88;10.73;;;;;;;3.45;81.50;101616.63;5044355;28;20035;-78
2023/01/23 03:17:40;;;;;;;20.60;10.07;;;;;;;3.39;81.31;101617.31;5044675;28;20037;-78
2023/01/23 03:20:06;;;;;;;19.00;11.75;;;;;;;3.34;81.25;101615.09;5044851;28;20040;-77
2023/01/23 03:22:31;;;;;;;16.02;9.98;;;;;;;3.35;82.12;101611.41;5045524;28;20485;-79
2023/01/23 03:24:57;;;;;;;16.60;10.82;;;;;;;3.44;81.73;101619.50;5045220;28;20036;-77
2023/01/23 03:27:23;;;;;;;17.70;11.55;;;;;;;3.48;81.76;101623.50;5044412;28;20029;-79
2023/01/23 03:32:32;;;;;;;18.77;10.90;;;;;;;3.31;81.93;101626.25;5045121;28;20036;-76
2023/01/23 03:34:58;;;;;;;20.58;11.25;;;;;;;3.34;81.91;101623.19;5044482;28;20262;-78
2023/01/23 03:37:23;;;;;;;23.85;12.10;;;;;;;3.48;81.33;101623.50;5044136;28;20036;-78
2023/01/23 03:42:33;;;;;;;29.52;12.27;;;;;;;3.49;80.94;101622.50;5044740;28;20083;-78
2023/01/23 03:44:59;;;;;;;17.27;10.48;;;;;;;3.47;81.19;101621.84;5043272;28;20088;-79
2023/01/23 03:47:25;;;;;;;19.10;10.65;;;;;;;3.35;81.88;101626.75;5044557;28;20060;-78
2023/01/23 03:49:50;;;;;;;18.98;11.75;;;;;;;3.21;81.80;101630.97;5041965;28;20525;-78
2023/01/23 03:52:16;;;;;;;18.98;12.52;;;;;;;3.23;82.45;101639.72;5045106;28;20037;-77
2023/01/23 03:54:41;;;;;;;27.75;13.40;;;;;;;3.12;82.46;101628.28;5044403;28;20053;-78
2023/01/23 03:57:07;;;;;;;18.88;10.18;;;;;;;3.18;82.59;101631.28;5044494;28;20037;-78
2023/01/23 03:59:32;;;;;;;19.55;11.20;;;;;;;3.21;82.45;101628.28;5042428;28;20120;-78
2023/01/23 04:01:59;;;;;;;21.27;11.27;;;;;;;3.28;82.37;101631.97;5044284;28;20033;-77
2023/01/23 04:04:25;;;;;;;22.88;9.95;;;;;;;3.35;82.04;101635.69;5044376;28;20080;-78
2023/01/23 04:06:50;;;;;;;19.13;10.82;;;;;;;3.30;81.92;101631.78;5045179;28;20068;-78
2023/01/23 04:09:16;;;;;;;24.65;13.48;;;;;;;3.25;82.18;101632.31;5042562;28;20060;-78
2023/01/23 04:11:41;;;;;;;23.73;12.65;;;;;;;3.23;82.46;101635.19;5045079;28;20520;-78
2023/01/23 04:14:06;;;;;;;23.67;13.68;;;;;;;3.23;82.24;101642.44;5043383;28;20765;-77
2023/01/23 04:16:31;;;;;;;20.23;11.93;;;;;;;3.27;82.27;101641.91;5043800;28;20051;-78
2023/01/23 04:18:57;;;;;;;25.20;14.20;;;;;;;3.33;82.29;101640.41;5043327;28;20469;-78
2023/01/23 04:21:22;;;;;;;20.98;13.05;;;;;;;3.46;81.77;101642.56;5043547;28;20577;-79
2023/01/23 04:23:48;;;;;;;24.98;12.57;;;;;;;3.48;81.64;101650.47;5044010;28;20057;-80
2023/01/23 04:26:13;;;;;;;20.30;12.15;;;;;;;3.48;81.29;101653.16;5044143;28;20482;-79
2023/01/23 04:28:39;;;;;;;28.17;14.93;;;;;;;3.43;81.30;101648.31;5041812;28;20490;-79
2023/01/23 04:31:04;;;;;;;23.77;10.25;;;;;;;3.42;81.89;101652.00;5043698;28;20172;-78
2023/01/23 04:33:30;;;;;;;23.33;11.88;;;;;;;3.42;81.49;101654.69;5044291;28;20064;-78
2023/01/23 04:36:00;;;;;;;20.02;10.70;;;;;;;3.47;81.42;101648.81;5043533;28;20052;-78
2023/01/23 04:38:28;;;;;;;20.75;11.70;;;;;;;3.32;81.37;101649.50;5041555;28;20877;-78
2023/01/23 04:40:53;;;;;;;18.63;10.30;;;;;;;3.40;81.54;101642.41;5043522;28;20028;-78
2023/01/23 04:43:19;;;;;;;19.15;10.93;;;;;;;3.44;80.97;101643.75;5042522;28;20047;-78
2023/01/23 04:45:45;;;;;;;21.20;12.15;;;;;;;3.38;81.24;101643.41;5044031;28;20055;-79
2023/01/23 04:48:12;;;;;;;21.13;12.75;;;;;;;3.33;81.63;101653.03;5041451;28;20048;-79
2023/01/23 04:50:37;;;;;;;19.80;11.63;;;;;;;3.32;81.38;101645.94;5043074;28;20047;-77
2023/01/23 04:53:03;;;;;;;23.92;12.45;;;;;;;3.26;81.61;101644.78;5043479;28;20049;-78
2023/01/23 04:55:28;;;;;;;20.13;10.38;;;;;;;3.30;81.62;101640.72;5042978;28;20029;-78
2023/01/23 04:57:54;;;;;;;18.10;11.23;;;;;;;3.38;81.76;101642.56;5038755;28;20041;-78
2023/01/23 05:00:20;;;;;;;21.98;11.48;;;;;;;3.42;81.37;101638.50;5043324;28;20040;-78
2023/01/23 05:02:46;;;;;;;25.65;13.43;;;;;;;3.24;81.76;101638.69;5042150;28;20025;-78
2023/01/23 05:05:11;;;;;;;20.85;11.23;;;;;;;3.17;82.02;101640.41;5043373;28;20033;-78
2023/01/23 05:07:37;;;;;;;17.17;9.93;;;;;;;3.18;82.00;101634.00;5041749;28;20040;-77
2023/01/23 05:10:03;;;;;;;21.50;11.55;;;;;;;3.20;82.09;101634.66;5042006;28;20061;-77
2023/01/23 05:12:28;;;;;;;21.90;12.50;;;;;;;3.21;81.64;101630.97;5043050;28;20485;-76
2023/01/23 05:14:53;;;;;;;20.95;10.73;;;;;;;3.22;81.98;101633.50;5043142;28;20120;-75
2023/01/23 05:17:19;;;;;;;23.88;12.30;;;;;;;3.11;82.09;101626.56;5042714;28;20025;-77
2023/01/23 05:19:44;;;;;;;19.52;9.52;;;;;;;3.04;82.31;101630.97;5042181;28;20474;-80
2023/01/23 05:22:09;;;;;;;18.98;11.63;;;;;;;3.11;81.94;101631.97;5043845;28;20025;-75
2023/01/23 05:24:34;;;;;;;21.02;11.82;;;;;;;3.14;82.31;101637.03;5043494;28;20045;-77
2023/01/23 05:27:00;;;;;;;14.57;9.43;;;;;;;3.22;81.47;101644.28;5042990;28;20138;-76
2023/01/23 05:29:25;;;;;;;21.57;13.10;;;;;;;3.19;81.87;101639.22;5041821;28;20028;-76
2023/01/23 05:31:50;;;;;;;21.17;10.93;;;;;;;3.23;81.62;101642.44;5043144;28;20254;-76
2023/01/23 05:34:16;;;;;;;16.20;9.73;;;;;;;3.27;81.57;101646.47;5043004;28;20071;-77
2023/01/23 05:36:41;;;;;;;16.00;9.90;;;;;;;3.31;81.88;101645.13;5042934;28;20305;-76
2023/01/23 05:39:06;;;;;;;18.08;10.65;;;;;;;3.23;81.89;101655.91;5040948;28;20273;-75
2023/01/23 05:41:31;;;;;;;23.52;11.23;;;;;;;3.23;81.30;101655.91;5042961;28;20430;-77
2023/01/23 05:43:57;;;;;;;26.37;12.23;;;;;;;3.21;81.47;101653.38;5042847;28;20096;-77
2023/01/23 05:46:22;;;;;;;18.77;11.40;;;;;;;3.26;81.64;101658.25;5043298;28;20678;-76
2023/01/23 05:48:49;;;;;;;16.90;10.77;;;;;;;3.29;81.34;101666.03;5041487;28;20273;-76
2023/01/23 05:51:15;;;;;;;25.25;9.63;;;;;;;3.23;81.22;101661.31;5042982;28;20056;-77
2023/01/23 05:53:40;;;;;;;18.13;10.35;;;;;;;3.28;81.10;101669.72;5042894;28;20197;-77
2023/01/23 05:56:06;;;;;;;24.97;11.80;;;;;;;3.30;81.52;101662.28;5042822;28;20033;-77
2023/01/23 05:58:32;;;;;;;21.42;10.40;;;;;;;3.37;81.18;101668.72;5041574;28;20941;-77
2023/01/23 06:00:57;;;;;;;16.60;9.95;;;;;;;3.38;80.76;101665.00;5043173;28;20218;-77
2023/01/23 06:03:22;;;;;;;18.80;9.23;;;;;;;3.45;80.43;101669.69;5042884;28;20029;-77
2023/01/23 06:05:47;;;;;;;20.10;11.37;;;;;;;3.40;80.04;101672.09;5042718;28;20413;-76
2023/01/23 06:08:13;;;;;;;13.73;8.48;;;;;;;3.34;80.16;101679.81;5041034;28;20274;-77
2023/01/23 06:10:38;;;;;;;18.42;10.07;;;;;;;3.44;80.47;101676.13;5043222;28;20041;-75
2023/01/23 06:13:03;;;;;;;17.08;8.52;;;;;;;3.47;80.53;101679.31;5043252;28;20037;-77
2023/01/23 06:15:28;;;;;;;17.70;9.57;;;;;;;3.45;80.68;101678.66;5046748;28;20032;-77
2023/01/23 06:17:54;;;;;;;23.23;11.77;;;;;;;3.46;80.14;101677.63;5045088;28;20452;-77
2023/01/23 06:20:19;;;;;;;17.33;10.20;;;;;;;3.44;80.22;101678.81;5046587;28;20365;-76
2023/01/23 06:22:45;;;;;;;21.00;10.43;;;;;;;3.41;80.49;101679.16;5046774;28;20257;-76
2023/01/23 06:25:10;;;;;;;18.52;9.35;;;;;;;3.30;80.09;101683.88;5046320;28;20033;-77
2023/01/23 06:27:35;;;;;;;18.48;10.13;;;;;;;3.21;81.44;101684.88;5044931;28;20029;-76
2023/01/23 06:30:01;;;;;;;19.38;9.77;;;;;;;3.24;81.32;101689.94;5045977;28;20051;-76
2023/01/23 06:32:26;;;;;;;17.63;9.77;;;;;;;3.31;80.96;101696.34;5046278;28;20033;-76
2023/01/23 06:34:51;;;;;;;16.07;9.93;;;;;;;3.36;80.92;101696.69;5046162;28;20041;-77
2023/01/23 06:37:16;;;;;;;15.48;10.13;;;;;;;3.40;80.39;101699.88;5045153;28;20525;-77
2023/01/23 06:39:42;;;;;;;16.63;9.27;;;;;;;3.37;80.22;101698.38;5044714;28;20033;-78
2023/01/23 06:42:09;;;;;;;18.83;9.30;;;;;;;3.32;80.84;101698.03;5045069;28;20258;-77
2023/01/23 06:44:35;;;;;;;18.63;9.50;;;;;;;3.31;80.97;101707.13;5045878;28;20290;-77
2023/01/23 06:47:01;;;;;;;20.88;10.90;;;;;;;3.28;80.73;101715.53;5046240;28;20040;-77
2023/01/23 06:49:26;;;;;;;25.65;11.30;;;;;;;3.30;81.38;101710.81;5044119;28;20033;-78
2023/01/23 06:51:51;;;;;;;21.17;11.73;;;;;;;3.32;81.22;101718.75;5045873;28;20576;-79
2023/01/23 06:54:16;;;;;;;18.25;10.15;;;;;;;3.29;81.11;101724.47;5045818;28;20264;-78
2023/01/23 06:56:42;;;;;;;21.95;11.82;;;;;;;3.25;81.93;101723.97;5045649;28;20037;-77
2023/01/23 06:59:07;;;;;;;21.07;9.63;;;;;;;3.25;81.64;101730.19;5044323;28;20037;-77
2023/01/23 07:01:32;;;;;;;20.73;11.25;;;;;;;3.17;81.68;101732.06;5045986;28;20286;-76
2023/01/23 07:03:58;;;;;;;17.95;10.63;;;;;;;3.15;82.37;101730.34;5045336;28;20072;-76
2023/01/23 07:06:23;;;;;;;20.92;12.15;;;;;;;3.21;82.31;101733.41;5046115;28;20032;-76
2023/01/23 07:08:48;;;;;;;24.70;13.57;;;;;;;3.31;81.54;101731.41;5044987;28;20044;-78
2023/01/23 07:11:14;;;;;;;20.77;10.45;;;;;;;3.36;82.03;101736.28;5048046;28;20487;-79
2023/01/23 07:13:39;;;;;;;22.50;13.30;;;;;;;3.36;81.50;101742.50;5048101;28;20071;-79
2023/01/23 07:16:05;;;;;;;24.40;13.13;;;;;;;3.41;82.17;101741.16;5048540;28;20032;-77
2023/01/23 07:18:31;;;;;;;22.88;13.02;;;;;;;3.35;82.09;101742.69;5045271;28;20482;-79
2023/01/23 07:20:56;;;;;;;25.30;11.82;;;;;;;3.43;82.00;101753.50;5045583;28;20060;-77
2023/01/23 07:23:22;;;;;;;21.58;12.93;;;;;;;3.52;81.51;101751.63;5045814;28;20055;-78
2023/01/23 07:25:47;;;;;;;24.27;11.30;;;;;;;3.56;80.84;101749.44;5045106;28;20037;-80
2023/01/23 07:28:13;;;;;;;28.75;14.95;;;;;;;3.53;80.64;101749.78;5042879;28;20037;-78
2023/01/23 07:30:38;;;;;;;19.85;11.70;;;;;;;3.55;81.36;101762.09;5045810;28;20039;-79
2023/01/23 07:33:04;;;;;;;22.05;10.25;;;;;;;3.57;80.74;101757.38;5045236;28;20104;-78
2023/01/23 07:35:29;;;;;;;21.23;12.05;;;;;;;3.53;80.70;101766.81;5045485;28;20112;-78
2023/01/23 07:37:55;;;;;;;26.70;14.80;;;;;;;3.50;81.06;101765.28;5043440;28;20036;-79
2023/01/23 07:40:20;;;;;;;24.58;11.20;;;;;;;3.30;81.27;101764.75;5045493;28;20991;-79
2023/01/23 07:42:45;;;;;;;26.60;12.67;;;;;;;3.31;81.70;101766.47;5043700;28;20993;-78
2023/01/23 07:45:11;;;;;;;20.05;10.02;;;;;;;3.32;82.53;101761.88;5044972;28;20277;-79
2023/01/23 07:47:40;;;;;;;24.63;11.65;;;;;;;3.38;82.38;101770.16;5043175;28;20036;-78
2023/01/23 07:50:11;;;;;;;27.58;13.05;;;;;;;3.47;82.27;101768.31;5044709;28;20044;-78
2023/01/23 07:52:37;;;;;;;27.33;14.40;;;;;;;3.41;81.21;101774.38;5045041;28;20036;-79
2023/01/23 07:55:03;;;;;;;27.38;14.55;;;;;;;3.38;81.47;101767.47;5045123;28;20041;-79
2023/01/23 07:57:28;;;;;;;26.52;12.25;;;;;;;3.30;81.70;101775.53;5043911;28;20577;-79
2023/01/23 07:59:53;;;;;;;27.35;13.13;;;;;;;3.23;82.49;101774.53;5043804;28;20037;-78
2023/01/23 08:02:18;;;;;;;22.95;12.73;;;;;;;3.32;82.53;101778.06;5045502;28;20866;-84
2023/01/23 08:04:44;;;;;;;23.47;12.13;;;;;;;3.35;81.75;101778.59;5045703;28;20068;-81
2023/01/23 08:07:09;;;;;;;25.48;11.77;;;;;;;3.40;81.88;101788.03;5044707;28;20309;-81
2023/01/23 08:09:34;;;;;;;24.15;12.32;;;;;;;3.34;81.64;101787.69;5044462;28;20629;-86
2023/01/23 08:12:00;;;;;;;23.33;11.60;;;;;;;3.42;82.17;101788.72;5045647;28;20025;-81
2023/01/23 08:14:25;;;;;;;22.67;13.88;;;;;;;3.49;82.16;101789.72;5045006;28;20544;-80
2023/01/23 08:16:52;;;;;;;23.88;13.55;;;;;;;3.38;81.83;101790.88;5044862;28;20040;-77
2023/01/23 08:19:17;;;;;;;21.95;11.40;;;;;;;3.47;82.06;101792.59;5042268;28;20032;-77
2023/01/23 08:21:43;;;;;;;20.98;10.48;;;;;;;3.47;81.06;101792.59;5044320;28;20067;-78
2023/01/23 08:24:13;;;;;;;24.38;12.52;;;;;;;3.44;81.53;101792.09;5044091;28;20037;-80
2023/01/23 08:26:39;;;;;;;20.25;11.98;;;;;;;3.34;82.10;101787.69;5044082;28;20028;-77
2023/01/23 08:29:04;;;;;;;26.65;14.75;;;;;;;3.27;81.89;101792.88;5043212;28;20501;-82
2023/01/23 08:31:29;;;;;;;18.65;10.77;;;;;;;3.23;82.33;101790.72;5044240;28;20041;-79
2023/01/23 08:33:55;;;;;;;21.83;13.40;;;;;;;3.23;82.46;101786.16;5044324;28;20458;-76
2023/01/23 08:36:20;;;;;;;23.98;10.95;;;;;;;3.21;82.76;101792.72;5043265;28;20033;-77
2023/01/23 08:38:45;;;;;;;28.15;12.13;;;;;;;3.19;82.56;101789.34;5044123;28;20036;-78
2023/01/23 08:41:11;;;;;;;22.63;13.18;;;;;;;3.18;82.81;101782.25;5043343;28;20830;-79
2023/01/23 08:43:37;;;;;;;19.33;11.38;;;;;;;3.30;82.32;101780.94;5044339;28;21140;-79
2023/01/23 08:46:03;;;;;;;25.90;10.05;;;;;;;3.40;81.91;101779.94;5043627;28;20135;-77
2023/01/23 08:48:28;;;;;;;19.63;10.35;;;;;;;3.36;81.28;101791.06;5042088;28;21351;-78
2023/01/23 08:51:05;;;;;;;21.88;11.13;;;;;;;3.39;81.85;101787.19;5044072;28;20114;-77
2023/01/23 08:53:31;;;;;;;19.60;11.13;;;;;;;3.41;82.02;101793.25;5044038;28;20036;-80
2023/01/23 08:56:01;;;;;;;21.38;11.52;;;;;;;3.46;81.69;101800.84;5043047;28;20029;-79
2023/01/23 08:58:26;;;;;;;19.00;10.10;;;;;;;3.41;81.67;101798.66;5041924;28;20037;-81
2023/01/23 09:00:52;;;;;;;20.30;10.32;;;;;;;3.36;81.67;101799.16;5043240;28;20036;-79
2023/01/23 09:03:17;;;;;;;34.58;10.07;;;;;;;3.30;81.70;101799.81;5042892;28;20485;-78
2023/01/23 09:05:42;;;;;;;22.35;10.73;;;;;;;3.35;81.71;101799.31;5043072;28;20123;-80
2023/01/23 09:08:08;;;;;;;25.35;10.82;;;;;;;3.34;81.27;101792.22;5040829;28;20033;-78
2023/01/23 09:10:33;;;;;;;17.02;9.98;;;;;;;3.44;81.41;101797.50;5043432;28;20519;-77
2023/01/23 09:12:58;;;;;;;20.92;9.77;;;;;;;3.48;80.97;101798.81;5043370;28;20382;-78
2023/01/23 09:15:23;;;;;;;20.10;8.80;;;;;;;3.45;80.98;101794.63;5058487;28;20131;-77
2023/01/23 09:17:49;;;;;;;21.23;12.23;;;;;;;3.50;81.22;101804.88;5041638;28;20286;-77
2023/01/23 09:20:14;;;;;;;22.20;11.15;;;;;;;3.57;80.79;101800.53;5043354;28;20037;-79
2023/01/23 09:22:40;;;;;;;22.00;9.93;;;;;;;3.59;80.80;101806.59;5042989;28;20536;-79
2023/01/23 09:25:06;;;;;;;22.10;10.10;;;;;;;3.56;80.86;101801.53;5043175;28;20060;-79
2023/01/23 09:27:31;;;;;;;17.50;9.27;;;;;;;3.61;80.49;101804.56;5042060;28;20406;-80
2023/01/23 09:29:56;;;;;;;18.65;7.82;;;;;;;3.64;80.29;101802.56;5043086;28;20048;-79
2023/01/23 09:32:22;;;;;;;21.97;10.30;;;;;;;3.62;80.82;101806.25;5043110;28;20025;-79
2023/01/23 09:34:47;;;;;;;17.38;10.20;;;;;;;3.73;80.39;101806.94;5043223;28;20746;-83
2023/01/23 09:37:14;;;;;;;16.23;8.65;;;;;;;3.74;80.16;101816.72;5041983;28;20041;-79
2023/01/23 09:39:41;;;;;;;17.90;9.70;;;;;;;3.82;80.06;101815.88;5041339;28;21185;-78
2023/01/23 09:42:19;;;;;;;18.92;9.63;;;;;;;3.82;80.10;101827.50;5042432;28;20033;-78
2023/01/23 09:44:49;;;;;;;21.10;10.77;;;;;;;3.81;80.19;101817.72;5042088;28;20090;-78
2023/01/23 09:47:40;;;;;;;18.92;9.50;;;;;;;3.81;80.12;101825.81;5042893;28;20039;-77
2023/01/23 09:50:13;;;;;;;17.33;8.60;;;;;;;3.78;79.36;101826.16;5046200;28;20033;-77
2023/01/23 09:52:47;;;;;;;14.25;8.10;;;;;;;3.79;78.97;101833.25;5046968;28;20025;-79
2023/01/23 09:55:17;;;;;;;;;;;;;;;3.83;79.62;101831.88;5046983;28;20037;-78
2023/01/23 09:57:51;;;;;;;20.85;9.40;;;;;;;3.65;80.37;101828.50;5044824;28;19917;-77
2023/01/23 10:00:26;;;;;;;17.45;9.52;;;;;;;3.64;80.33;101827.66;5046984;28;20497;-78
2023/01/23 10:02:53;;;;;;;16.05;11.40;;;;;;;3.81;80.27;101824.97;5045521;28;20036;-77
2023/01/23 10:05:29;;;;;;;15.38;9.98;;;;;;;3.86;79.79;101822.63;5046552;28;20040;-78
2023/01/23 10:08:03;;;;;;;18.27;9.95;;;;;;;3.97;79.35;101826.81;5044835;28;20090;-79
2023/01/23 10:11:03;;;;;;;20.00;10.25;;;;;;;3.88;78.62;101833.25;5046392;28;20023;-78
2023/01/23 10:14:03;;;;;;;21.58;9.30;;;;;;;3.80;79.67;101828.69;5047297;28;20067;-81
2023/01/23 10:17:04;;;;;;;17.88;10.68;;;;;;;3.79;79.38;101838.63;5046972;28;20041;-80
2023/01/23 10:19:33;;;;;;;19.17;10.05;;;;;;;3.79;79.09;101833.25;5045617;28;20041;-80
2023/01/23 10:22:26;;;;;;;15.50;8.75;;;;;;;3.72;79.10;101835.75;5047327;28;20061;-79
2023/01/23 10:24:55;;;;;;;17.50;7.97;;;;;;;3.72;78.80;101827.66;5046825;28;20029;-79
2023/01/23 10:27:23;;;;;;;16.65;7.88;;;;;;;3.80;79.20;101832.25;5046077;28;20597;-79
2023/01/23 10:29:58;;;;;;;18.15;9.40;;;;;;;3.82;78.59;101832.06;5045429;28;20387;-79
2023/01/23 10:32:25;;;;;;;16.38;8.52;;;;;;;3.73;78.65;101826.66;5046431;28;20886;-79
2023/01/23 10:35:02;;;;;;;14.65;8.27;;;;;;;3.71;78.39;101833.22;5046338;28;20033;-80
2023/01/23 10:37:44;;;;;;;16.65;7.32;;;;;;;3.70;78.54;101828.88;5045934;28;20462;-79
2023/01/23 10:40:12;;;;;;;17.23;8.88;;;;;;;3.71;78.59;101838.63;5045560;28;20068;-79
2023/01/23 10:42:37;;;;;;;15.80;9.48;;;;;;;3.76;78.14;101843.53;5045859;28;20043;-79
2023/01/23 10:45:03;;;;;;;19.55;9.35;;;;;;;3.72;77.92;101843.84;5045474;28;20053;-78
2023/01/23 10:47:35;;;;;;;13.88;7.10;;;;;;;3.89;78.70;101837.63;5044676;28;20049;-77
2023/01/23 10:50:01;;;;;;;14.43;7.63;;;;;;;3.94;78.32;101835.28;5045981;28;20029;-83
2023/01/23 10:52:33;;;;;;;13.63;8.85;;;;;;;3.88;77.89;101830.53;5046563;28;20051;-79
2023/01/23 10:54:59;;;;;;;12.43;7.53;;;;;;;3.85;77.64;101837.97;5047036;28;20501;-79
2023/01/23 10:57:27;;;;;;;15.05;7.07;;;;;;;3.87;77.83;101836.94;5045853;28;20039;-76
2023/01/23 10:59:55;;;;;;;14.07;6.72;;;;;;;3.78;77.77;101836.97;5044210;28;20033;-79
2023/01/23 11:02:36;;;;;;;13.55;7.15;;;;;;;3.89;77.94;101843.88;5045848;28;20048;-81
2023/01/23 11:05:22;;;;;;;13.98;8.30;;;;;;;3.81;77.90;101830.38;5046435;28;20146;-80
2023/01/23 11:07:53;;;;;;;14.02;7.18;;;;;;;3.88;76.47;101826.00;5044136;28;20382;-80
2023/01/23 11:10:22;;;;;;;13.80;8.73;;;;;;;3.94;76.44;101825.31;5045700;28;20044;-77
2023/01/23 11:12:56;;;;;;;19.20;8.25;;;;;;;3.95;77.26;101829.69;5045676;28;20037;-80
2023/01/23 11:15:27;;;;;;;14.05;7.22;;;;;;;4.05;77.54;101825.97;5044903;28;20359;-79
2023/01/23 11:17:55;;;;;;;12.95;7.55;;;;;;;4.03;76.42;101811.78;5044471;28;20072;-78
2023/01/23 11:20:34;;;;;;;15.75;7.63;;;;;;;4.11;76.54;101819.06;5045668;28;20060;-89
2023/01/23 11:23:07;;;;;;;15.07;8.48;;;;;;;4.11;76.94;101819.06;5042895;28;20115;-79
2023/01/23 11:25:40;;;;;;;13.63;7.57;;;;;;;4.11;76.82;101819.88;5045520;28;20047;-80